Time;durP1;ratioP1;P1;durP2;ratioP2;P2;SDS_P1;SDS_P2;PMS_P1;PMS_P2;Temp;Humidity;BMP_temperature;BMP_pressure;BME280_temperature;BME280_humidity;BME280_pressure;Samples;Min_cycle;Max_cycle;Signal;HPM_P1;HPM_P2
2023/09/13 00:00:00;;;;;;;32.08;19.27;;;;;;;;;;2085521;28;20075;-76
2023/09/13 00:01:21;;;;;;;28.40;17.70;;;;;;;;;;2090069;28;20550;-75
2023/09/13 00:02:42;;;;;;;29.25;17.08;;;;;;;;;;2086786;28;20438;-75
2023/09/13 00:04:03;;;;;;;32.30;17.35;;;;;;;;;;2094347;28;20024;-75
2023/09/13 00:05:24;;;;;;;34.08;18.38;;;;;;;;;;2085624;28;20429;-74
2023/09/13 00:06:45;;;;;;;30.48;17.00;;;;;;;;;;2094218;28;20028;-75
2023/09/13 00:08:06;;;;;;;30.77;17.75;;;;;;;;;;2093724;28;20511;-75
2023/09/13 00:09:27;;;;;;;33.35;18.17;;;;;;;;;;2087307;28;20055;-75
2023/09/13 00:10:48;;;;;;;31.02;17.38;;;;;;;;;;2087341;28;20024;-75
2023/09/13 00:12:09;;;;;;;32.28;17.67;;;;;;;;;;2083578;28;20401;-75
2023/09/13 00:13:30;;;;;;;35.13;19.10;;;;;;;;;;2091117;28;20041;-74
2023/09/13 00:14:51;;;;;;;34.40;19.45;;;;;;;;;;2094569;28;20033;-75
2023/09/13 00:16:12;;;;;;;35.50;18.30;;;;;;;;;;2096570;28;20032;-74
2023/09/13 00:17:33;;;;;;;34.47;18.88;;;;;;;;;;2096027;28;20475;-75
2023/09/13 00:18:54;;;;;;;33.35;19.15;;;;;;;;;;2087951;28;20037;-74
2023/09/13 00:20:15;;;;;;;30.90;18.77;;;;;;;;;;2087219;28;20025;-74
2023/09/13 00:21:40;;;;;;;30.33;17.42;;;;;;;;;;2088658;28;20471;-75
2023/09/13 00:23:01;;;;;;;32.33;18.02;;;;;;;;;;2093004;28;20033;-74
2023/09/13 00:24:22;;;;;;;34.15;17.63;;;;;;;;;;2090404;28;20048;-75
2023/09/13 00:25:43;;;;;;;33.70;19.42;;;;;;;;;;2084129;28;20045;-75
2023/09/13 00:27:04;;;;;;;31.15;18.77;;;;;;;;;;2085433;28;20025;-75
2023/09/13 00:28:25;;;;;;;33.80;19.13;;;;;;;;;;2092377;28;20131;-75
2023/09/13 00:29:46;;;;;;;32.63;17.85;;;;;;;;;;2085590;28;20110;-75
2023/09/13 00:31:10;;;;;;;36.75;20.27;;;;;;;;;;2089855;28;20130;-74
2023/09/13 00:32:31;;;;;;;35.47;19.45;;;;;;;;;;2090821;28;20052;-75
2023/09/13 00:33:52;;;;;;;32.25;18.65;;;;;;;;;;2087316;28;20033;-75
2023/09/13 00:35:12;;;;;;;35.10;18.58;;;;;;;;;;2090594;28;20029;-74
2023/09/13 00:36:34;;;;;;;36.65;19.27;;;;;;;;;;2096333;28;20044;-75
2023/09/13 00:37:55;;;;;;;37.45;19.88;;;;;;;;;;2085545;28;20024;-74
2023/09/13 00:39:16;;;;;;;36.30;19.92;;;;;;;;;;2088736;28;20025;-74
2023/09/13 00:40:37;;;;;;;35.83;18.48;;;;;;;;;;2090930;28;20033;-74
2023/09/13 00:41:58;;;;;;;41.80;20.52;;;;;;;;;;2091457;28;20036;-75
2023/09/13 00:43:19;;;;;;;38.75;20.92;;;;;;;;;;2095783;28;20037;-75
2023/09/13 00:44:40;;;;;;;39.00;22.08;;;;;;;;;;2085652;28;20134;-74
2023/09/13 00:46:02;;;;;;;41.83;23.45;;;;;;;;;;2080719;28;20034;-75
2023/09/13 00:47:23;;;;;;;49.22;22.65;;;;;;;;;;2088024;28;20409;-74
2023/09/13 00:48:44;;;;;;;42.17;24.42;;;;;;;;;;2092528;28;20032;-75
2023/09/13 00:50:07;;;;;;;46.55;24.50;;;;;;;;;;2081258;28;20075;-75
2023/09/13 00:51:28;;;;;;;49.08;24.42;;;;;;;;;;2096437;28;20510;-75
2023/09/13 00:52:49;;;;;;;49.28;23.83;;;;;;;;;;2085800;28;20358;-75
2023/09/13 00:54:11;;;;;;;47.57;23.57;;;;;;;;;;2087406;28;20715;-75
2023/09/13 00:55:32;;;;;;;45.65;25.45;;;;;;;;;;2094910;28;20445;-75
2023/09/13 00:56:53;;;;;;;45.87;25.70;;;;;;;;;;2093002;28;20458;-75
2023/09/13 00:58:15;;;;;;;42.63;23.58;;;;;;;;;;2093534;28;20103;-75
2023/09/13 00:59:36;;;;;;;45.28;23.90;;;;;;;;;;2094675;28;20044;-75
2023/09/13 01:00:57;;;;;;;46.05;23.58;;;;;;;;;;2086161;28;20488;-75
2023/09/13 01:02:18;;;;;;;44.30;24.38;;;;;;;;;;2082643;28;20064;-75
2023/09/13 01:03:39;;;;;;;44.90;23.02;;;;;;;;;;2086138;28;20565;-75
2023/09/13 01:05:01;;;;;;;44.58;22.95;;;;;;;;;;2090866;28;20028;-75
2023/09/13 01:06:22;;;;;;;46.03;24.35;;;;;;;;;;2095297;28;20031;-75
2023/09/13 01:07:44;;;;;;;37.17;22.15;;;;;;;;;;2088104;28;20476;-75
2023/09/13 01:09:05;;;;;;;43.60;22.23;;;;;;;;;;2085968;28;20025;-75
2023/09/13 01:10:26;;;;;;;43.53;22.75;;;;;;;;;;2098130;28;20020;-75
2023/09/13 01:11:48;;;;;;;43.17;22.27;;;;;;;;;;2102075;28;20445;-75
2023/09/13 01:13:09;;;;;;;37.65;22.30;;;;;;;;;;2095318;28;20467;-75
2023/09/13 01:14:30;;;;;;;44.42;23.88;;;;;;;;;;2095857;28;20040;-75
2023/09/13 01:16:00;;;;;;;43.42;22.90;;;;;;;;;;2099764;28;20040;-75
2023/09/13 01:17:26;;;;;;;49.50;24.50;;;;;;;;;;2095302;28;20033;-75
2023/09/13 01:18:55;;;;;;;46.80;23.25;;;;;;;;;;2094752;28;20074;-74
2023/09/13 01:20:32;;;;;;;43.53;24.10;;;;;;;;;;2081878;28;20079;-75
2023/09/13 01:22:05;;;;;;;39.55;21.83;;;;;;;;;;2097094;28;20036;-75
2023/09/13 01:23:27;;;;;;;48.35;24.60;;;;;;;;;;2096790;28;20041;-75
2023/09/13 01:25:13;;;;;;;46.95;23.38;;;;;;;;;;2089377;28;20154;-75
2023/09/13 01:26:44;;;;;;;48.03;23.73;;;;;;;;;;2103997;28;20085;-75
2023/09/13 01:28:23;;;;;;;46.03;23.88;;;;;;;;;;2097422;28;20035;-75
2023/09/13 01:29:44;;;;;;;43.72;23.83;;;;;;;;;;2098639;28;20039;-75
2023/09/13 01:31:06;;;;;;;46.08;23.40;;;;;;;;;;2098651;28;20040;-75
2023/09/13 01:32:28;;;;;;;52.20;24.60;;;;;;;;;;2087148;28;20094;-75
2023/09/13 01:33:49;;;;;;;43.47;23.55;;;;;;;;;;2100336;28;20252;-75
2023/09/13 01:35:10;;;;;;;43.75;22.90;;;;;;;;;;2094221;28;20380;-75
2023/09/13 01:36:31;;;;;;;50.23;24.10;;;;;;;;;;2098528;28;20217;-75
2023/09/13 01:37:52;;;;;;;50.70;23.63;;;;;;;;;;2097745;28;20024;-75
2023/09/13 01:39:13;;;;;;;47.40;25.40;;;;;;;;;;2089524;28;20028;-75
2023/09/13 01:40:37;;;;;;;43.40;22.90;;;;;;;;;;2086298;28;20025;-75
2023/09/13 01:42:09;;;;;;;50.72;23.88;;;;;;;;;;2088589;28;20495;-75
2023/09/13 01:43:31;;;;;;;51.83;26.48;;;;;;;;;;2090247;28;20033;-75
2023/09/13 01:44:52;;;;;;;53.78;26.77;;;;;;;;;;2095690;28;20476;-75
2023/09/13 01:46:13;;;;;;;53.33;26.02;;;;;;;;;;2094946;28;20492;-75
2023/09/13 01:47:34;;;;;;;52.28;25.38;;;;;;;;;;2091984;28;20048;-75
2023/09/13 01:48:56;;;;;;;59.35;27.50;;;;;;;;;;2101608;28;20028;-75
2023/09/13 01:50:17;;;;;;;60.55;26.85;;;;;;;;;;2088621;28;20374;-75
2023/09/13 01:51:38;;;;;;;54.75;26.83;;;;;;;;;;2096781;28;20035;-75
2023/09/13 01:53:03;;;;;;;54.33;27.75;;;;;;;;;;2096208;28;20031;-75
2023/09/13 01:54:24;;;;;;;65.72;29.98;;;;;;;;;;2094763;28;20113;-75
2023/09/13 01:55:44;;;;;;;66.63;31.60;;;;;;;;;;2094280;28;20035;-75
2023/09/13 01:57:06;;;;;;;66.15;30.80;;;;;;;;;;2096398;28;20054;-76
2023/09/13 01:58:27;;;;;;;65.20;31.88;;;;;;;;;;2084482;28;20546;-75
2023/09/13 01:59:48;;;;;;;63.25;29.48;;;;;;;;;;2088166;28;20033;-75
2023/09/13 02:01:09;;;;;;;71.10;34.58;;;;;;;;;;2089862;28;20488;-75
2023/09/13 02:02:30;;;;;;;70.72;31.38;;;;;;;;;;2087917;28;20041;-75
2023/09/13 02:03:51;;;;;;;75.85;31.10;;;;;;;;;;2083444;28;20487;-75
2023/09/13 02:05:12;;;;;;;70.50;33.97;;;;;;;;;;2084522;28;20044;-75
2023/09/13 02:06:33;;;;;;;79.35;33.50;;;;;;;;;;2089926;28;20455;-75
2023/09/13 02:07:54;;;;;;;74.13;32.95;;;;;;;;;;2092819;28;20029;-75
2023/09/13 02:09:16;;;;;;;77.13;34.88;;;;;;;;;;2096709;28;20453;-75
2023/09/13 02:10:37;;;;;;;77.57;33.08;;;;;;;;;;2094657;28;20067;-75
2023/09/13 02:11:58;;;;;;;82.82;35.20;;;;;;;;;;2086876;28;20033;-75
2023/09/13 02:13:19;;;;;;;82.47;35.22;;;;;;;;;;2082017;28;20512;-75
2023/09/13 02:14:40;;;;;;;78.53;32.30;;;;;;;;;;2092446;28;20033;-75
2023/09/13 02:16:01;;;;;;;82.25;34.85;;;;;;;;;;2096399;28;20032;-75
2023/09/13 02:17:22;;;;;;;71.80;33.00;;;;;;;;;;2085846;28;20106;-75
2023/09/13 02:18:43;;;;;;;75.80;32.72;;;;;;;;;;2092836;28;20025;-75
2023/09/13 02:20:05;;;;;;;71.40;32.47;;;;;;;;;;2084669;28;20036;-75
2023/09/13 02:21:26;;;;;;;80.07;32.83;;;;;;;;;;2089945;28;20044;-75
2023/09/13 02:22:46;;;;;;;84.18;36.05;;;;;;;;;;2084778;28;20021;-75
2023/09/13 02:24:08;;;;;;;80.07;33.25;;;;;;;;;;2090861;28;20480;-76
2023/09/13 02:25:28;;;;;;;75.05;32.90;;;;;;;;;;2093136;28;20058;-75
2023/09/13 02:26:54;;;;;;;66.82;31.92;;;;;;;;;;2095882;28;20037;-75
2023/09/13 02:28:14;;;;;;;67.07;31.80;;;;;;;;;;2093584;28;20075;-75
2023/09/13 02:29:35;;;;;;;80.68;32.00;;;;;;;;;;2088512;28;20091;-75
2023/09/13 02:30:56;;;;;;;70.20;30.17;;;;;;;;;;2082314;28;20026;-76
2023/09/13 02:32:17;;;;;;;72.53;32.03;;;;;;;;;;2080562;28;20485;-75
2023/09/13 02:33:38;;;;;;;70.75;32.28;;;;;;;;;;2082206;28;20052;-76
2023/09/13 02:34:59;;;;;;;73.90;32.60;;;;;;;;;;2093526;28;20036;-76
2023/09/13 02:36:22;;;;;;;64.78;30.77;;;;;;;;;;2087912;28;20033;-76
2023/09/13 02:37:43;;;;;;;72.40;31.75;;;;;;;;;;2090744;28;20024;-75
2023/09/13 02:39:04;;;;;;;65.15;30.90;;;;;;;;;;2096107;28;20028;-76
2023/09/13 02:40:24;;;;;;;72.40;31.80;;;;;;;;;;2096366;28;20055;-76
2023/09/13 02:41:45;;;;;;;61.90;29.05;;;;;;;;;;2087257;28;20041;-75
2023/09/13 02:43:07;;;;;;;61.10;27.40;;;;;;;;;;2088173;28;20100;-76
2023/09/13 02:44:28;;;;;;;63.10;27.10;;;;;;;;;;2091967;28;20024;-75
2023/09/13 02:45:48;;;;;;;66.50;30.25;;;;;;;;;;2095665;28;20043;-76
2023/09/13 02:47:09;;;;;;;67.43;28.55;;;;;;;;;;2095896;28;20033;-76
2023/09/13 02:48:30;;;;;;;62.30;29.42;;;;;;;;;;2096997;28;20029;-76
2023/09/13 02:49:51;;;;;;;62.72;29.75;;;;;;;;;;2087036;28;20100;-75
2023/09/13 02:51:13;;;;;;;63.70;28.90;;;;;;;;;;2086952;28;20041;-76
2023/09/13 02:52:34;;;;;;;62.05;29.27;;;;;;;;;;2092492;28;20043;-75
2023/09/13 02:53:55;;;;;;;65.13;27.80;;;;;;;;;;2085110;28;20049;-76
2023/09/13 02:55:16;;;;;;;65.18;30.30;;;;;;;;;;2084848;28;20103;-76
2023/09/13 02:56:36;;;;;;;65.43;27.75;;;;;;;;;;2093609;28;20114;-75
2023/09/13 02:57:57;;;;;;;63.10;29.08;;;;;;;;;;2095205;28;20373;-76
2023/09/13 02:59:18;;;;;;;62.45;29.35;;;;;;;;;;2093161;28;20044;-76
2023/09/13 03:00:43;;;;;;;66.57;29.35;;;;;;;;;;2091364;28;21106;-75
2023/09/13 03:02:04;;;;;;;68.00;28.52;;;;;;;;;;2096693;28;20032;-75
2023/09/13 03:03:24;;;;;;;62.13;28.60;;;;;;;;;;2086211;28;20099;-75
2023/09/13 03:04:48;;;;;;;66.88;30.13;;;;;;;;;;2086462;28;20017;-76
2023/09/13 03:06:13;;;;;;;65.05;28.15;;;;;;;;;;2089233;28;20656;-76
2023/09/13 03:07:33;;;;;;;64.38;29.55;;;;;;;;;;2093807;28;20024;-75
2023/09/13 03:08:55;;;;;;;64.05;29.80;;;;;;;;;;2087572;28;20025;-75
2023/09/13 03:10:16;;;;;;;60.35;29.38;;;;;;;;;;2090842;28;20033;-76
2023/09/13 03:11:37;;;;;;;60.25;28.13;;;;;;;;;;2100838;28;20054;-76
2023/09/13 03:12:58;;;;;;;68.10;30.23;;;;;;;;;;2096009;28;20118;-75
2023/09/13 03:14:18;;;;;;;72.90;30.40;;;;;;;;;;2088437;28;20075;-75
2023/09/13 03:15:39;;;;;;;67.25;29.10;;;;;;;;;;2086024;28;20033;-76
2023/09/13 03:17:00;;;;;;;67.22;28.25;;;;;;;;;;2082956;28;20040;-76
2023/09/13 03:18:21;;;;;;;67.28;29.38;;;;;;;;;;2078597;28;20029;-76
2023/09/13 03:19:42;;;;;;;72.00;29.13;;;;;;;;;;2084293;28;20503;-75
2023/09/13 03:21:05;;;;;;;66.45;30.08;;;;;;;;;;2089278;28;20024;-76
2023/09/13 03:22:26;;;;;;;70.13;29.48;;;;;;;;;;2093057;28;20037;-76
2023/09/13 03:23:51;;;;;;;67.47;30.75;;;;;;;;;;2091368;28;20052;-76
2023/09/13 03:25:12;;;;;;;69.53;31.65;;;;;;;;;;2093168;28;20037;-75
2023/09/13 03:26:33;;;;;;;68.55;30.30;;;;;;;;;;2094640;28;20033;-76
2023/09/13 03:27:54;;;;;;;72.35;29.80;;;;;;;;;;2083900;28;20034;-75
2023/09/13 03:29:15;;;;;;;69.90;29.20;;;;;;;;;;2085070;28;20045;-76
2023/09/13 03:30:36;;;;;;;72.70;30.85;;;;;;;;;;2085358;28;20095;-76
2023/09/13 03:31:57;;;;;;;73.53;30.20;;;;;;;;;;2093516;28;20032;-76
2023/09/13 03:33:18;;;;;;;71.05;30.73;;;;;;;;;;2095646;28;20028;-76
2023/09/13 03:34:39;;;;;;;77.32;30.08;;;;;;;;;;2089380;28;20356;-76
2023/09/13 03:36:00;;;;;;;76.90;32.53;;;;;;;;;;2086422;28;20044;-75
2023/09/13 03:37:21;;;;;;;80.85;34.08;;;;;;;;;;2093246;28;20082;-76
2023/09/13 03:38:43;;;;;;;72.93;31.60;;;;;;;;;;2085668;28;20370;-75
2023/09/13 03:40:05;;;;;;;89.20;35.00;;;;;;;;;;2089872;28;20111;-76
2023/09/13 03:41:26;;;;;;;;;;;;;;;;;;2094138;28;20037;-75
2023/09/13 03:42:46;;;;;;;81.40;31.45;;;;;;;;;;2096163;28;19987;-76
2023/09/13 03:44:07;;;;;;;85.68;34.42;;;;;;;;;;2089687;28;20048;-77
2023/09/13 03:45:28;;;;;;;96.30;36.80;;;;;;;;;;2083747;28;20025;-74
2023/09/13 03:46:49;;;;;;;90.55;34.55;;;;;;;;;;2082408;28;20443;-75
2023/09/13 03:48:10;;;;;;;86.72;34.60;;;;;;;;;;2082917;28;20071;-76
2023/09/13 03:49:31;;;;;;;88.38;34.55;;;;;;;;;;2092308;28;20032;-75
2023/09/13 03:50:52;;;;;;;89.63;33.38;;;;;;;;;;2093983;28;20500;-75
2023/09/13 03:52:13;;;;;;;89.72;36.08;;;;;;;;;;2099366;28;20032;-74
2023/09/13 03:53:34;;;;;;;90.28;33.47;;;;;;;;;;2096552;28;20052;-74
2023/09/13 03:54:55;;;;;;;90.78;36.80;;;;;;;;;;2084733;28;20037;-75
2023/09/13 03:56:16;;;;;;;91.68;33.80;;;;;;;;;;2092594;28;20041;-75
2023/09/13 03:57:37;;;;;;;92.63;33.92;;;;;;;;;;2094186;28;20441;-74
2023/09/13 03:58:58;;;;;;;87.15;32.33;;;;;;;;;;2096209;28;20032;-74
2023/09/13 04:00:19;;;;;;;84.32;33.17;;;;;;;;;;2092158;28;20041;-75
2023/09/13 04:01:39;;;;;;;89.68;34.88;;;;;;;;;;2097588;28;20029;-74
2023/09/13 04:03:00;;;;;;;91.00;34.28;;;;;;;;;;2093099;28;20393;-74
2023/09/13 04:04:21;;;;;;;90.47;34.90;;;;;;;;;;2093949;28;20109;-75
2023/09/13 04:05:43;;;;;;;93.35;34.58;;;;;;;;;;2095644;28;20032;-75
2023/09/13 04:07:03;;;;;;;88.00;31.93;;;;;;;;;;2097733;28;20023;-75
2023/09/13 04:08:24;;;;;;;95.82;35.08;;;;;;;;;;2094758;28;20476;-75
2023/09/13 04:09:45;;;;;;;82.10;33.00;;;;;;;;;;2094303;28;20033;-74
2023/09/13 04:11:07;;;;;;;80.80;30.38;;;;;;;;;;2086940;28;20926;-74
2023/09/13 04:12:27;;;;;;;87.88;33.42;;;;;;;;;;2081991;28;21240;-74
2023/09/13 04:13:48;;;;;;;84.05;33.47;;;;;;;;;;2091921;28;20052;-75
2023/09/13 04:15:09;;;;;;;82.43;32.13;;;;;;;;;;2096329;28;20028;-75
2023/09/13 04:16:30;;;;;;;84.65;33.88;;;;;;;;;;2093410;28;20036;-75
2023/09/13 04:17:51;;;;;;;80.30;33.97;;;;;;;;;;2093737;28;20089;-75
2023/09/13 04:19:12;;;;;;;82.05;31.80;;;;;;;;;;2093233;28;20389;-76
2023/09/13 04:20:33;;;;;;;77.28;31.25;;;;;;;;;;2095703;28;20040;-75
2023/09/13 04:21:54;;;;;;;81.90;33.00;;;;;;;;;;2085939;28;20037;-75
2023/09/13 04:23:15;;;;;;;76.72;31.92;;;;;;;;;;2091080;28;20024;-76
2023/09/13 04:24:36;;;;;;;82.80;31.48;;;;;;;;;;2083121;28;20463;-76
2023/09/13 04:25:56;;;;;;;80.05;32.15;;;;;;;;;;2087831;28;20039;-76
2023/09/13 04:27:21;;;;;;;76.72;32.05;;;;;;;;;;2081906;28;20289;-75
2023/09/13 04:28:42;;;;;;;84.85;33.20;;;;;;;;;;2090348;28;20105;-75
2023/09/13 04:30:03;;;;;;;81.90;31.52;;;;;;;;;;2086738;28;20040;-76
2023/09/13 04:31:24;;;;;;;86.05;31.98;;;;;;;;;;2089687;28;20094;-76
2023/09/13 04:32:47;;;;;;;80.60;31.33;;;;;;;;;;2095228;28;20032;-76
2023/09/13 04:34:08;;;;;;;76.75;31.90;;;;;;;;;;2095111;28;20051;-75
2023/09/13 04:35:29;;;;;;;84.68;33.28;;;;;;;;;;2084219;28;20037;-75
2023/09/13 04:36:50;;;;;;;80.38;31.42;;;;;;;;;;2094646;28;20070;-75
2023/09/13 04:38:11;;;;;;;79.50;32.55;;;;;;;;;;2084790;28;20416;-74
2023/09/13 04:39:32;;;;;;;85.50;33.60;;;;;;;;;;2092096;28;20040;-76
2023/09/13 04:40:53;;;;;;;81.53;32.60;;;;;;;;;;2083150;28;20444;-75
2023/09/13 04:42:14;;;;;;;79.53;31.15;;;;;;;;;;2081136;28;20033;-75
2023/09/13 04:43:35;;;;;;;79.25;30.00;;;;;;;;;;2091121;28;20082;-75
2023/09/13 04:44:56;;;;;;;89.43;31.85;;;;;;;;;;2085102;28;20034;-74
2023/09/13 04:46:17;;;;;;;83.22;30.65;;;;;;;;;;2089240;28;20488;-75
2023/09/13 04:47:38;;;;;;;79.95;32.78;;;;;;;;;;2083669;28;20025;-74
2023/09/13 04:48:59;;;;;;;76.25;30.75;;;;;;;;;;2098976;28;20036;-75
2023/09/13 04:50:20;;;;;;;77.45;33.20;;;;;;;;;;2096782;28;20028;-75
2023/09/13 04:51:41;;;;;;;83.95;32.63;;;;;;;;;;2086197;28;20029;-76
2023/09/13 04:53:02;;;;;;;92.70;35.38;;;;;;;;;;2090494;28;20045;-76
2023/09/13 04:54:23;;;;;;;84.55;30.52;;;;;;;;;;2096609;28;20033;-75
2023/09/13 04:55:44;;;;;;;89.05;35.33;;;;;;;;;;2092671;28;20545;-76
2023/09/13 04:57:05;;;;;;;87.78;31.23;;;;;;;;;;2095061;28;20039;-74
2023/09/13 04:58:27;;;;;;;91.60;32.75;;;;;;;;;;2095601;28;20097;-74
2023/09/13 04:59:48;;;;;;;87.85;34.78;;;;;;;;;;2084380;28;20059;-74
2023/09/13 05:01:09;;;;;;;87.43;33.33;;;;;;;;;;2083362;28;20037;-74
2023/09/13 05:02:30;;;;;;;86.07;34.08;;;;;;;;;;2086852;28;20491;-74
2023/09/13 05:03:52;;;;;;;78.85;31.10;;;;;;;;;;2091473;28;20032;-74
2023/09/13 05:05:13;;;;;;;91.95;33.63;;;;;;;;;;2089655;28;20141;-75
2023/09/13 05:06:34;;;;;;;83.93;32.55;;;;;;;;;;2094953;28;20021;-75
2023/09/13 05:07:55;;;;;;;81.97;31.25;;;;;;;;;;2095063;28;20082;-75
2023/09/13 05:09:15;;;;;;;88.38;32.75;;;;;;;;;;2101708;28;20100;-75
2023/09/13 05:10:38;;;;;;;81.88;32.45;;;;;;;;;;2089752;28;20032;-76
2023/09/13 05:11:59;;;;;;;88.93;34.85;;;;;;;;;;2082894;28;20714;-75
2023/09/13 05:13:20;;;;;;;85.05;33.28;;;;;;;;;;2092090;28;20082;-75
2023/09/13 05:14:42;;;;;;;84.50;32.53;;;;;;;;;;2084098;28;20037;-75
2023/09/13 05:16:03;;;;;;;87.72;32.28;;;;;;;;;;2090999;28;20492;-75
2023/09/13 05:17:24;;;;;;;83.95;31.80;;;;;;;;;;2083152;28;20045;-76
2023/09/13 05:18:45;;;;;;;87.03;32.33;;;;;;;;;;2084057;28;20084;-75
2023/09/13 05:20:06;;;;;;;77.70;30.52;;;;;;;;;;2093896;28;20051;-75
2023/09/13 05:21:27;;;;;;;83.75;34.35;;;;;;;;;;2094957;28;20545;-76
2023/09/13 05:22:48;;;;;;;80.45;31.40;;;;;;;;;;2092334;28;20431;-76
2023/09/13 05:24:09;;;;;;;85.97;32.10;;;;;;;;;;2093391;28;20110;-76
2023/09/13 05:25:30;;;;;;;84.13;35.03;;;;;;;;;;2094882;28;20029;-75
2023/09/13 05:26:51;;;;;;;75.85;31.98;;;;;;;;;;2097450;28;20569;-75
2023/09/13 05:28:13;;;;;;;82.18;33.08;;;;;;;;;;2086755;28;20029;-75
2023/09/13 05:29:34;;;;;;;90.32;33.13;;;;;;;;;;2087821;28;20033;-75
2023/09/13 05:30:54;;;;;;;97.60;35.80;;;;;;;;;;2084700;28;20036;-74
2023/09/13 05:32:15;;;;;;;89.75;34.33;;;;;;;;;;2092550;28;20044;-75
2023/09/13 05:33:36;;;;;;;87.45;31.67;;;;;;;;;;2091169;28;20040;-75
2023/09/13 05:34:57;;;;;;;81.57;32.55;;;;;;;;;;2091625;28;20054;-75
2023/09/13 05:36:18;;;;;;;78.72;31.60;;;;;;;;;;2086814;28;20026;-75
2023/09/13 05:37:39;;;;;;;83.45;32.75;;;;;;;;;;2088792;28;20492;-75
2023/09/13 05:39:00;;;;;;;83.65;36.42;;;;;;;;;;2095424;28;20033;-75
2023/09/13 05:40:21;;;;;;;83.15;34.65;;;;;;;;;;2094943;28;20024;-74
2023/09/13 05:41:42;;;;;;;83.53;33.00;;;;;;;;;;2096145;28;20043;-74
2023/09/13 05:43:03;;;;;;;93.95;36.55;;;;;;;;;;2102182;28;20024;-76
2023/09/13 05:44:24;;;;;;;81.35;31.75;;;;;;;;;;2086955;28;20512;-76
2023/09/13 05:45:45;;;;;;;81.43;33.28;;;;;;;;;;2087780;28;20037;-74
2023/09/13 05:47:06;;;;;;;74.25;30.23;;;;;;;;;;2085278;28;20025;-75
2023/09/13 05:48:27;;;;;;;77.78;31.33;;;;;;;;;;2093891;28;20029;-76
2023/09/13 05:49:48;;;;;;;84.03;33.13;;;;;;;;;;2087222;28;20431;-74
2023/09/13 05:51:09;;;;;;;79.85;31.25;;;;;;;;;;2089453;28;20693;-75
2023/09/13 05:52:33;;;;;;;85.03;34.05;;;;;;;;;;2091884;28;20029;-74
2023/09/13 05:53:53;;;;;;;74.93;33.65;;;;;;;;;;2091957;28;20476;-75
2023/09/13 05:55:14;;;;;;;89.13;34.05;;;;;;;;;;2095974;28;20086;-74
2023/09/13 05:56:35;;;;;;;83.65;34.85;;;;;;;;;;2097293;28;20025;-75
2023/09/13 05:57:56;;;;;;;84.35;33.35;;;;;;;;;;2085782;28;20521;-75
2023/09/13 05:59:17;;;;;;;79.47;32.03;;;;;;;;;;2086470;28;20040;-77
2023/09/13 06:00:41;;;;;;;82.25;33.97;;;;;;;;;;2088148;28;20025;-77
2023/09/13 06:02:02;;;;;;;74.55;31.52;;;;;;;;;;2091486;28;20033;-75
2023/09/13 06:03:23;;;;;;;81.72;33.33;;;;;;;;;;2094771;28;20024;-74
2023/09/13 06:04:44;;;;;;;77.60;30.35;;;;;;;;;;2099603;28;20040;-75
2023/09/13 06:06:05;;;;;;;77.40;30.58;;;;;;;;;;2095838;28;20495;-75
2023/09/13 06:07:26;;;;;;;86.35;32.40;;;;;;;;;;2095930;28;20467;-75
2023/09/13 06:08:47;;;;;;;82.15;32.78;;;;;;;;;;2097316;28;20028;-75
2023/09/13 06:10:08;;;;;;;79.35;31.27;;;;;;;;;;2101712;28;20028;-75
2023/09/13 06:11:29;;;;;;;75.82;32.00;;;;;;;;;;2091277;28;20026;-75
2023/09/13 06:12:50;;;;;;;73.10;30.17;;;;;;;;;;2097217;28;20029;-75
2023/09/13 06:14:11;;;;;;;73.10;32.47;;;;;;;;;;2094218;28;20434;-73
2023/09/13 06:15:32;;;;;;;70.38;30.67;;;;;;;;;;2093824;28;20048;-73
2023/09/13 06:16:52;;;;;;;74.18;29.70;;;;;;;;;;2096770;28;20029;-74
2023/09/13 06:18:14;;;;;;;70.78;30.80;;;;;;;;;;2097281;28;20029;-74
2023/09/13 06:19:35;;;;;;;77.07;31.63;;;;;;;;;;2090742;28;20025;-74
2023/09/13 06:20:55;;;;;;;75.22;30.50;;;;;;;;;;2088777;28;20555;-74
2023/09/13 06:22:17;;;;;;;70.78;30.27;;;;;;;;;;2096681;28;20036;-74
2023/09/13 06:23:39;;;;;;;65.70;29.38;;;;;;;;;;2089837;28;20078;-75
2023/09/13 06:25:00;;;;;;;77.47;31.08;;;;;;;;;;2088760;28;20037;-74
2023/09/13 06:26:21;;;;;;;75.50;30.85;;;;;;;;;;2093348;28;20025;-74
2023/09/13 06:27:42;;;;;;;71.87;30.83;;;;;;;;;;2091064;28;20036;-74
2023/09/13 06:29:03;;;;;;;77.03;31.27;;;;;;;;;;2098017;28;20477;-74
2023/09/13 06:30:26;;;;;;;70.00;29.83;;;;;;;;;;2090854;28;20025;-74
2023/09/13 06:31:47;;;;;;;75.63;31.48;;;;;;;;;;2097943;28;20027;-74
2023/09/13 06:33:08;;;;;;;65.13;28.58;;;;;;;;;;2090704;28;20025;-73
2023/09/13 06:34:29;;;;;;;65.22;29.30;;;;;;;;;;2096717;28;20705;-73
2023/09/13 06:35:51;;;;;;;67.75;29.13;;;;;;;;;;2091393;28;20025;-74
2023/09/13 06:37:12;;;;;;;67.72;30.52;;;;;;;;;;2094884;28;20024;-74
2023/09/13 06:38:33;;;;;;;65.15;28.60;;;;;;;;;;2084619;28;20119;-74
2023/09/13 06:39:54;;;;;;;70.50;28.33;;;;;;;;;;2094741;28;20032;-74
2023/09/13 06:41:15;;;;;;;68.57;27.75;;;;;;;;;;2089229;28;20033;-74
2023/09/13 06:42:36;;;;;;;64.55;27.00;;;;;;;;;;2089170;28;20029;-73
2023/09/13 06:43:57;;;;;;;66.32;28.15;;;;;;;;;;2085208;28;20134;-74
2023/09/13 06:45:17;;;;;;;58.30;27.20;;;;;;;;;;2087971;28;20091;-75
2023/09/13 06:46:38;;;;;;;55.67;26.73;;;;;;;;;;2090109;28;20037;-74
2023/09/13 06:47:59;;;;;;;69.40;27.73;;;;;;;;;;2090505;28;20076;-75
2023/09/13 06:49:20;;;;;;;60.40;28.42;;;;;;;;;;2098033;28;20070;-75
2023/09/13 06:50:41;;;;;;;58.67;27.70;;;;;;;;;;2099654;28;20028;-75
2023/09/13 06:52:02;;;;;;;65.40;29.15;;;;;;;;;;2089181;28;20040;-75
2023/09/13 06:53:23;;;;;;;63.17;29.10;;;;;;;;;;2089468;28;20029;-73
2023/09/13 06:54:44;;;;;;;66.10;27.27;;;;;;;;;;2082040;28;20071;-75
2023/09/13 06:56:05;;;;;;;58.17;27.38;;;;;;;;;;2083625;28;20412;-74
2023/09/13 06:57:26;;;;;;;59.15;25.70;;;;;;;;;;2088346;28;20021;-75
2023/09/13 06:58:47;;;;;;;56.65;26.45;;;;;;;;;;2085324;28;20029;-75
2023/09/13 07:00:08;;;;;;;62.15;26.90;;;;;;;;;;2098813;28;20491;-75
2023/09/13 07:01:29;;;;;;;58.53;26.55;;;;;;;;;;2097875;28;20029;-75
2023/09/13 07:02:50;;;;;;;49.20;24.42;;;;;;;;;;2087975;28;20032;-74
2023/09/13 07:04:11;;;;;;;56.20;25.05;;;;;;;;;;2093015;28;20395;-74
2023/09/13 07:05:32;;;;;;;55.92;24.08;;;;;;;;;;2097968;28;20032;-74
2023/09/13 07:06:53;;;;;;;52.35;24.70;;;;;;;;;;2088266;28;20033;-74
2023/09/13 07:08:14;;;;;;;53.15;23.80;;;;;;;;;;2094608;28;20029;-74
2023/09/13 07:09:35;;;;;;;56.25;26.08;;;;;;;;;;2098984;28;20025;-74
2023/09/13 07:10:56;;;;;;;53.38;24.67;;;;;;;;;;2089230;28;20516;-74
2023/09/13 07:12:17;;;;;;;53.60;24.52;;;;;;;;;;2094885;28;20028;-74
2023/09/13 07:13:38;;;;;;;50.22;23.42;;;;;;;;;;2097884;28;20032;-74
2023/09/13 07:14:59;;;;;;;51.67;24.10;;;;;;;;;;2095211;28;20044;-74
2023/09/13 07:16:20;;;;;;;53.75;24.33;;;;;;;;;;2098203;28;20120;-74
2023/09/13 07:17:41;;;;;;;45.95;22.95;;;;;;;;;;2087096;28;20090;-74
2023/09/13 07:19:02;;;;;;;52.30;24.02;;;;;;;;;;2094210;28;20021;-74
2023/09/13 07:20:23;;;;;;;46.65;23.08;;;;;;;;;;2091745;28;20033;-74
2023/09/13 07:21:44;;;;;;;46.63;22.55;;;;;;;;;;2087561;28;20029;-74
2023/09/13 07:23:05;;;;;;;45.88;22.13;;;;;;;;;;2086269;28;20033;-74
2023/09/13 07:24:26;;;;;;;50.78;25.13;;;;;;;;;;2081087;28;20050;-74
2023/09/13 07:25:48;;;;;;;43.30;22.92;;;;;;;;;;2077166;28;20040;-74
2023/09/13 07:27:09;;;;;;;45.75;22.92;;;;;;;;;;2086543;28;20372;-74
2023/09/13 07:28:29;;;;;;;45.58;22.95;;;;;;;;;;2083903;28;20449;-75
2023/09/13 07:29:50;;;;;;;45.78;21.35;;;;;;;;;;2091061;28;20075;-74
2023/09/13 07:31:11;;;;;;;44.22;22.08;;;;;;;;;;2089296;28;20396;-75
2023/09/13 07:32:32;;;;;;;47.13;24.25;;;;;;;;;;2090693;28;20029;-74
2023/09/13 07:33:53;;;;;;;55.60;22.42;;;;;;;;;;2092072;28;20120;-74
2023/09/13 07:35:14;;;;;;;25.73;12.63;;;;;;;;;;2076882;28;20025;-74
2023/09/13 07:36:35;;;;;;;26.27;12.93;;;;;;;;;;2082491;28;20048;-75
2023/09/13 07:37:56;;;;;;;23.23;11.35;;;;;;;;;;2088629;28;20032;-74
2023/09/13 07:39:17;;;;;;;14.88;8.48;;;;;;;;;;2088858;28;20083;-75
2023/09/13 07:40:38;;;;;;;16.38;8.52;;;;;;;;;;2087362;28;20044;-74
2023/09/13 07:41:59;;;;;;;13.73;7.90;;;;;;;;;;2079489;28;20018;-75
2023/09/13 07:43:20;;;;;;;12.90;7.30;;;;;;;;;;2089581;28;20021;-75
2023/09/13 07:44:41;;;;;;;11.05;7.07;;;;;;;;;;2078494;28;20026;-73
2023/09/13 07:46:03;;;;;;;13.13;6.93;;;;;;;;;;2084123;28;20055;-75
2023/09/13 07:47:24;;;;;;;;;;;;;;;;;;2096093;28;20024;-74
2023/09/13 07:48:45;;;;;;;8.23;5.00;;;;;;;;;;2092436;28;19911;-76
2023/09/13 07:50:26;;;;;;;9.82;5.43;;;;;;;;;;2088325;28;20025;-75
2023/09/13 07:51:47;;;;;;;8.93;5.10;;;;;;;;;;2080098;28;20029;-75
2023/09/13 07:53:08;;;;;;;6.95;4.18;;;;;;;;;;2081877;28;20037;-75
2023/09/13 07:54:29;;;;;;;8.63;4.95;;;;;;;;;;2077790;28;20025;-76